sensor_id;sensor_type;location;lat;lon;timestamp;P1;durP1;ratioP1;P2;durP2;ratioP2
18290;SDS011;9271;48.590;8.866;2023-02-28T00:00:22;1.70;;;1.60;;
18290;SDS011;9271;48.590;8.866;2023-02-28T00:02:51;1.83;;;1.73;;
18290;SDS011;9271;48.590;8.866;2023-02-28T00:05:18;3.37;;;1.70;;
18290;SDS011;9271;48.590;8.866;2023-02-28T00:07:46;3.13;;;1.70;;
18290;SDS011;9271;48.590;8.866;2023-02-28T00:10:15;1.53;;;1.43;;
18290;SDS011;9271;48.590;8.866;2023-02-28T00:12:44;1.57;;;1.37;;
18290;SDS011;9271;48.590;8.866;2023-02-28T00:15:11;1.57;;;1.47;;
18290;SDS011;9271;48.590;8.866;2023-02-28T00:17:37;2.17;;;1.73;;
18290;SDS011;9271;48.590;8.866;2023-02-28T00:20:06;1.60;;;1.50;;
18290;SDS011;9271;48.590;8.866;2023-02-28T00:22:35;1.50;;;1.40;;
18290;SDS011;9271;48.590;8.866;2023-02-28T00:25:02;1.70;;;1.60;;
18290;SDS011;9271;48.590;8.866;2023-02-28T00:27:29;2.03;;;1.70;;
18290;SDS011;9271;48.590;8.866;2023-02-28T00:29:56;1.63;;;1.53;;
18290;SDS011;9271;48.590;8.866;2023-02-28T00:32:22;1.97;;;1.43;;
18290;SDS011;9271;48.590;8.866;2023-02-28T00:34:49;1.90;;;1.70;;
18290;SDS011;9271;48.590;8.866;2023-02-28T00:37:17;1.70;;;1.60;;
18290;SDS011;9271;48.590;8.866;2023-02-28T00:39:43;2.03;;;1.60;;
18290;SDS011;9271;48.590;8.866;2023-02-28T00:42:10;1.60;;;1.50;;
18290;SDS011;9271;48.590;8.866;2023-02-28T00:44:37;2.00;;;1.80;;
18290;SDS011;9271;48.590;8.866;2023-02-28T00:47:04;2.70;;;1.73;;
18290;SDS011;9271;48.590;8.866;2023-02-28T00:49:30;2.00;;;1.80;;
18290;SDS011;9271;48.590;8.866;2023-02-28T00:51:57;1.70;;;1.60;;
18290;SDS011;9271;48.590;8.866;2023-02-28T00:54:25;2.00;;;1.80;;
18290;SDS011;9271;48.590;8.866;2023-02-28T00:56:52;1.80;;;1.70;;
18290;SDS011;9271;48.590;8.866;2023-02-28T00:59:18;1.73;;;1.63;;
18290;SDS011;9271;48.590;8.866;2023-02-28T01:01:46;1.97;;;1.77;;
18290;SDS011;9271;48.590;8.866;2023-02-28T01:04:13;1.70;;;1.60;;
18290;SDS011;9271;48.590;8.866;2023-02-28T01:06:40;1.70;;;1.60;;
18290;SDS011;9271;48.590;8.866;2023-02-28T01:09:07;1.80;;;1.70;;
18290;SDS011;9271;48.590;8.866;2023-02-28T01:11:36;1.77;;;1.67;;
18290;SDS011;9271;48.590;8.866;2023-02-28T01:14:03;1.60;;;1.50;;
18290;SDS011;9271;48.590;8.866;2023-02-28T01:16:30;2.10;;;1.80;;
18290;SDS011;9271;48.590;8.866;2023-02-28T01:18:57;1.80;;;1.70;;
18290;SDS011;9271;48.590;8.866;2023-02-28T01:21:24;2.30;;;1.50;;
18290;SDS011;9271;48.590;8.866;2023-02-28T01:23:51;2.07;;;1.70;;
18290;SDS011;9271;48.590;8.866;2023-02-28T01:26:18;3.33;;;1.83;;
18290;SDS011;9271;48.590;8.866;2023-02-28T01:28:48;2.03;;;1.80;;
18290;SDS011;9271;48.590;8.866;2023-02-28T01:31:15;1.63;;;1.50;;
18290;SDS011;9271;48.590;8.866;2023-02-28T01:33:43;2.37;;;1.60;;
18290;SDS011;9271;48.590;8.866;2023-02-28T01:36:10;1.90;;;1.70;;
18290;SDS011;9271;48.590;8.866;2023-02-28T01:38:38;1.57;;;1.47;;
18290;SDS011;9271;48.590;8.866;2023-02-28T01:41:05;1.77;;;1.60;;
18290;SDS011;9271;48.590;8.866;2023-02-28T01:43:52;1.90;;;1.80;;
18290;SDS011;9271;48.590;8.866;2023-02-28T01:46:21;1.80;;;1.63;;
18290;SDS011;9271;48.590;8.866;2023-02-28T01:48:49;2.70;;;1.80;;
18290;SDS011;9271;48.590;8.866;2023-02-28T01:51:19;1.60;;;1.50;;
18290;SDS011;9271;48.590;8.866;2023-02-28T01:53:49;1.70;;;1.60;;
18290;SDS011;9271;48.590;8.866;2023-02-28T01:56:22;2.17;;;1.70;;
18290;SDS011;9271;48.590;8.866;2023-02-28T01:58:55;1.97;;;1.73;;
18290;SDS011;9271;48.590;8.866;2023-02-28T02:01:22;1.90;;;1.70;;
18290;SDS011;9271;48.590;8.866;2023-02-28T02:03:51;1.97;;;1.63;;
18290;SDS011;9271;48.590;8.866;2023-02-28T02:06:21;3.83;;;1.57;;
18290;SDS011;9271;48.590;8.866;2023-02-28T02:08:49;2.53;;;1.73;;
18290;SDS011;9271;48.590;8.866;2023-02-28T02:11:17;2.53;;;1.83;;
18290;SDS011;9271;48.590;8.866;2023-02-28T02:13:51;2.20;;;1.97;;
18290;SDS011;9271;48.590;8.866;2023-02-28T02:16:34;1.77;;;1.60;;
18290;SDS011;9271;48.590;8.866;2023-02-28T02:19:15;1.80;;;1.70;;
18290;SDS011;9271;48.590;8.866;2023-02-28T02:22:09;1.57;;;1.47;;
18290;SDS011;9271;48.590;8.866;2023-02-28T02:24:58;1.87;;;1.77;;
18290;SDS011;9271;48.590;8.866;2023-02-28T02:27:47;2.20;;;2.00;;
18290;SDS011;9271;48.590;8.866;2023-02-28T02:30:44;3.67;;;1.70;;
18290;SDS011;9271;48.590;8.866;2023-02-28T02:33:31;2.10;;;1.90;;
18290;SDS011;9271;48.590;8.866;2023-02-28T02:36:22;2.43;;;2.10;;
18290;SDS011;9271;48.590;8.866;2023-02-28T02:38:53;1.97;;;1.70;;
18290;SDS011;9271;48.590;8.866;2023-02-28T02:41:28;2.90;;;1.90;;
18290;SDS011;9271;48.590;8.866;2023-02-28T02:44:03;2.00;;;1.87;;
18290;SDS011;9271;48.590;8.866;2023-02-28T02:46:37;2.20;;;2.00;;
18290;SDS011;9271;48.590;8.866;2023-02-28T02:49:08;2.97;;;1.90;;
18290;SDS011;9271;48.590;8.866;2023-02-28T02:51:40;2.00;;;1.90;;
18290;SDS011;9271;48.590;8.866;2023-02-28T02:54:10;2.10;;;1.90;;
18290;SDS011;9271;48.590;8.866;2023-02-28T02:56:40;1.97;;;1.77;;
18290;SDS011;9271;48.590;8.866;2023-02-28T02:59:10;2.07;;;1.97;;
18290;SDS011;9271;48.590;8.866;2023-02-28T03:01:40;2.40;;;2.20;;
18290;SDS011;9271;48.590;8.866;2023-02-28T03:04:08;2.00;;;1.90;;
18290;SDS011;9271;48.590;8.866;2023-02-28T03:06:37;1.83;;;1.70;;
18290;SDS011;9271;48.590;8.866;2023-02-28T03:09:05;2.47;;;2.17;;
18290;SDS011;9271;48.590;8.866;2023-02-28T03:11:32;2.60;;;2.10;;
18290;SDS011;9271;48.590;8.866;2023-02-28T03:14:16;2.40;;;2.20;;
18290;SDS011;9271;48.590;8.866;2023-02-28T03:20:04;2.10;;;1.97;;
18290;SDS011;9271;48.590;8.866;2023-02-28T03:22:50;2.60;;;2.37;;
18290;SDS011;9271;48.590;8.866;2023-02-28T03:25:27;2.50;;;2.30;;
18290;SDS011;9271;48.590;8.866;2023-02-28T03:28:00;2.10;;;2.00;;
18290;SDS011;9271;48.590;8.866;2023-02-28T03:30:33;2.67;;;2.47;;
18290;SDS011;9271;48.590;8.866;2023-02-28T03:33:05;2.40;;;2.17;;
18290;SDS011;9271;48.590;8.866;2023-02-28T03:35:38;2.67;;;2.20;;
18290;SDS011;9271;48.590;8.866;2023-02-28T03:38:09;2.50;;;2.30;;
18290;SDS011;9271;48.590;8.866;2023-02-28T03:40:42;2.40;;;2.20;;
18290;SDS011;9271;48.590;8.866;2023-02-28T03:43:14;2.57;;;2.20;;
18290;SDS011;9271;48.590;8.866;2023-02-28T03:45:47;2.53;;;2.33;;
18290;SDS011;9271;48.590;8.866;2023-02-28T03:48:17;3.00;;;2.30;;
18290;SDS011;9271;48.590;8.866;2023-02-28T03:50:48;2.30;;;2.10;;
18290;SDS011;9271;48.590;8.866;2023-02-28T03:53:18;2.67;;;2.47;;
18290;SDS011;9271;48.590;8.866;2023-02-28T03:55:53;2.40;;;2.17;;
18290;SDS011;9271;48.590;8.866;2023-02-28T03:58:26;3.07;;;2.50;;
18290;SDS011;9271;48.590;8.866;2023-02-28T04:00:57;2.50;;;2.30;;
18290;SDS011;9271;48.590;8.866;2023-02-28T04:03:32;2.80;;;2.50;;
18290;SDS011;9271;48.590;8.866;2023-02-28T04:06:00;2.90;;;2.40;;
18290;SDS011;9271;48.590;8.866;2023-02-28T04:08:27;2.57;;;2.37;;
18290;SDS011;9271;48.590;8.866;2023-02-28T04:10:57;3.47;;;2.50;;
18290;SDS011;9271;48.590;8.866;2023-02-28T04:13:27;2.80;;;2.50;;
18290;SDS011;9271;48.590;8.866;2023-02-28T04:15:54;2.83;;;2.60;;
18290;SDS011;9271;48.590;8.866;2023-02-28T04:18:20;2.93;;;2.50;;
18290;SDS011;9271;48.590;8.866;2023-02-28T04:20:47;2.73;;;2.53;;
18290;SDS011;9271;48.590;8.866;2023-02-28T04:23:13;3.00;;;2.77;;
18290;SDS011;9271;48.590;8.866;2023-02-28T04:25:40;2.50;;;2.30;;
18290;SDS011;9271;48.590;8.866;2023-02-28T04:28:08;2.43;;;2.23;;
18290;SDS011;9271;48.590;8.866;2023-02-28T04:30:35;2.50;;;2.30;;
18290;SDS011;9271;48.590;8.866;2023-02-28T04:33:04;3.00;;;2.80;;
18290;SDS011;9271;48.590;8.866;2023-02-28T04:35:30;2.73;;;2.53;;
18290;SDS011;9271;48.590;8.866;2023-02-28T04:37:57;2.77;;;2.50;;
18290;SDS011;9271;48.590;8.866;2023-02-28T04:40:24;2.73;;;2.53;;
18290;SDS011;9271;48.590;8.866;2023-02-28T04:42:50;2.63;;;2.43;;
18290;SDS011;9271;48.590;8.866;2023-02-28T04:45:18;2.83;;;2.47;;
18290;SDS011;9271;48.590;8.866;2023-02-28T04:47:45;2.93;;;2.43;;
18290;SDS011;9271;48.590;8.866;2023-02-28T04:50:11;5.43;;;3.17;;
18290;SDS011;9271;48.590;8.866;2023-02-28T04:52:38;3.10;;;2.80;;
18290;SDS011;9271;48.590;8.866;2023-02-28T04:55:05;2.90;;;2.60;;
18290;SDS011;9271;48.590;8.866;2023-02-28T04:57:32;3.03;;;2.80;;
18290;SDS011;9271;48.590;8.866;2023-02-28T04:59:59;2.90;;;2.70;;
18290;SDS011;9271;48.590;8.866;2023-02-28T05:02:27;3.63;;;2.90;;
18290;SDS011;9271;48.590;8.866;2023-02-28T05:04:53;3.43;;;3.07;;
18290;SDS011;9271;48.590;8.866;2023-02-28T05:07:20;3.17;;;2.97;;
18290;SDS011;9271;48.590;8.866;2023-02-28T05:09:47;3.27;;;2.97;;
18290;SDS011;9271;48.590;8.866;2023-02-28T05:12:13;3.23;;;2.87;;
18290;SDS011;9271;48.590;8.866;2023-02-28T05:14:40;3.67;;;2.80;;
18290;SDS011;9271;48.590;8.866;2023-02-28T05:17:08;3.23;;;2.90;;
18290;SDS011;9271;48.590;8.866;2023-02-28T05:19:36;3.67;;;3.13;;
18290;SDS011;9271;48.590;8.866;2023-02-28T05:22:03;3.07;;;2.80;;
18290;SDS011;9271;48.590;8.866;2023-02-28T05:24:29;3.40;;;3.10;;
18290;SDS011;9271;48.590;8.866;2023-02-28T05:26:56;3.40;;;2.97;;
18290;SDS011;9271;48.590;8.866;2023-02-28T05:29:23;3.50;;;2.97;;
18290;SDS011;9271;48.590;8.866;2023-02-28T05:31:49;3.43;;;3.20;;
18290;SDS011;9271;48.590;8.866;2023-02-28T05:34:16;3.73;;;3.43;;
18290;SDS011;9271;48.590;8.866;2023-02-28T05:36:44;4.57;;;3.57;;
18290;SDS011;9271;48.590;8.866;2023-02-28T05:39:10;3.83;;;3.43;;
18290;SDS011;9271;48.590;8.866;2023-02-28T05:41:39;3.67;;;3.37;;
18290;SDS011;9271;48.590;8.866;2023-02-28T05:44:06;4.30;;;3.63;;
18290;SDS011;9271;48.590;8.866;2023-02-28T05:46:33;10.90;;;9.20;;
18290;SDS011;9271;48.590;8.866;2023-02-28T05:49:00;4.47;;;3.60;;
18290;SDS011;9271;48.590;8.866;2023-02-28T05:51:27;3.93;;;3.63;;
18290;SDS011;9271;48.590;8.866;2023-02-28T05:53:58;4.10;;;3.50;;
18290;SDS011;9271;48.590;8.866;2023-02-28T05:56:25;4.17;;;3.50;;
18290;SDS011;9271;48.590;8.866;2023-02-28T05:58:52;3.70;;;3.40;;
18290;SDS011;9271;48.590;8.866;2023-02-28T06:01:19;4.00;;;3.60;;
18290;SDS011;9271;48.590;8.866;2023-02-28T06:03:50;4.30;;;3.90;;
18290;SDS011;9271;48.590;8.866;2023-02-28T06:06:17;4.23;;;3.73;;
18290;SDS011;9271;48.590;8.866;2023-02-28T06:08:44;3.90;;;3.60;;
18290;SDS011;9271;48.590;8.866;2023-02-28T06:11:12;4.33;;;3.93;;
18290;SDS011;9271;48.590;8.866;2023-02-28T06:13:38;4.17;;;3.77;;
18290;SDS011;9271;48.590;8.866;2023-02-28T06:16:05;4.03;;;3.63;;
18290;SDS011;9271;48.590;8.866;2023-02-28T06:18:32;4.17;;;3.77;;
18290;SDS011;9271;48.590;8.866;2023-02-28T06:20:59;4.10;;;3.70;;
18290;SDS011;9271;48.590;8.866;2023-02-28T06:23:26;3.90;;;3.50;;
18290;SDS011;9271;48.590;8.866;2023-02-28T06:25:52;4.53;;;4.13;;
18290;SDS011;9271;48.590;8.866;2023-02-28T06:28:24;4.40;;;4.00;;
18290;SDS011;9271;48.590;8.866;2023-02-28T06:30:51;5.57;;;4.13;;
18290;SDS011;9271;48.590;8.866;2023-02-28T06:33:18;5.03;;;4.37;;
18290;SDS011;9271;48.590;8.866;2023-02-28T06:35:46;4.50;;;4.10;;
18290;SDS011;9271;48.590;8.866;2023-02-28T06:38:13;4.80;;;4.30;;
18290;SDS011;9271;48.590;8.866;2023-02-28T06:40:39;5.07;;;4.50;;
18290;SDS011;9271;48.590;8.866;2023-02-28T06:43:06;4.40;;;3.67;;
18290;SDS011;9271;48.590;8.866;2023-02-28T06:45:34;4.57;;;4.17;;
18290;SDS011;9271;48.590;8.866;2023-02-28T06:48:00;5.23;;;4.13;;
18290;SDS011;9271;48.590;8.866;2023-02-28T06:50:27;5.23;;;4.30;;
18290;SDS011;9271;48.590;8.866;2023-02-28T06:52:55;4.37;;;4.03;;
18290;SDS011;9271;48.590;8.866;2023-02-28T06:55:22;4.63;;;4.23;;
18290;SDS011;9271;48.590;8.866;2023-02-28T06:57:49;4.40;;;4.00;;
18290;SDS011;9271;48.590;8.866;2023-02-28T07:00:16;4.77;;;4.07;;
18290;SDS011;9271;48.590;8.866;2023-02-28T07:02:45;4.57;;;4.17;;
18290;SDS011;9271;48.590;8.866;2023-02-28T07:05:12;4.53;;;4.10;;
18290;SDS011;9271;48.590;8.866;2023-02-28T07:07:39;5.30;;;4.50;;
18290;SDS011;9271;48.590;8.866;2023-02-28T07:10:09;4.90;;;4.40;;
18290;SDS011;9271;48.590;8.866;2023-02-28T07:12:37;4.80;;;4.30;;
18290;SDS011;9271;48.590;8.866;2023-02-28T07:15:04;4.00;;;3.67;;
18290;SDS011;9271;48.590;8.866;2023-02-28T07:17:32;4.30;;;3.90;;
18290;SDS011;9271;48.590;8.866;2023-02-28T07:20:00;4.27;;;3.90;;
18290;SDS011;9271;48.590;8.866;2023-02-28T07:22:29;4.70;;;3.97;;
18290;SDS011;9271;48.590;8.866;2023-02-28T07:24:56;4.00;;;3.70;;
18290;SDS011;9271;48.590;8.866;2023-02-28T07:27:22;4.50;;;4.10;;
18290;SDS011;9271;48.590;8.866;2023-02-28T07:29:52;5.00;;;4.20;;
18290;SDS011;9271;48.590;8.866;2023-02-28T07:32:19;5.83;;;4.50;;
18290;SDS011;9271;48.590;8.866;2023-02-28T07:34:46;6.53;;;4.10;;
18290;SDS011;9271;48.590;8.866;2023-02-28T07:37:14;4.17;;;3.87;;
18290;SDS011;9271;48.590;8.866;2023-02-28T07:39:41;4.77;;;4.30;;
18290;SDS011;9271;48.590;8.866;2023-02-28T07:42:08;4.60;;;4.20;;
18290;SDS011;9271;48.590;8.866;2023-02-28T07:44:36;5.17;;;4.60;;
18290;SDS011;9271;48.590;8.866;2023-02-28T07:47:05;4.50;;;4.10;;
18290;SDS011;9271;48.590;8.866;2023-02-28T07:49:32;5.03;;;4.20;;
18290;SDS011;9271;48.590;8.866;2023-02-28T07:51:59;4.40;;;4.00;;
18290;SDS011;9271;48.590;8.866;2023-02-28T07:54:27;5.33;;;4.80;;
18290;SDS011;9271;48.590;8.866;2023-02-28T07:56:53;5.00;;;4.50;;
18290;SDS011;9271;48.590;8.866;2023-02-28T07:59:20;5.60;;;4.60;;
18290;SDS011;9271;48.590;8.866;2023-02-28T08:01:47;4.87;;;4.27;;
18290;SDS011;9271;48.590;8.866;2023-02-28T08:04:15;5.30;;;4.80;;
18290;SDS011;9271;48.590;8.866;2023-02-28T08:06:41;5.10;;;4.60;;
18290;SDS011;9271;48.590;8.866;2023-02-28T08:09:09;4.90;;;4.20;;
18290;SDS011;9271;48.590;8.866;2023-02-28T08:11:37;5.27;;;4.63;;
18290;SDS011;9271;48.590;8.866;2023-02-28T08:14:04;6.53;;;4.77;;
18290;SDS011;9271;48.590;8.866;2023-02-28T08:16:31;4.97;;;4.47;;
18290;SDS011;9271;48.590;8.866;2023-02-28T08:18:57;10.90;;;4.40;;
18290;SDS011;9271;48.590;8.866;2023-02-28T08:21:24;6.00;;;4.87;;
18290;SDS011;9271;48.590;8.866;2023-02-28T08:23:51;5.30;;;4.80;;
18290;SDS011;9271;48.590;8.866;2023-02-28T08:26:18;5.07;;;4.60;;
18290;SDS011;9271;48.590;8.866;2023-02-28T08:28:46;7.50;;;5.23;;
18290;SDS011;9271;48.590;8.866;2023-02-28T08:31:13;6.00;;;5.00;;
18290;SDS011;9271;48.590;8.866;2023-02-28T08:33:41;5.30;;;4.80;;
18290;SDS011;9271;48.590;8.866;2023-02-28T08:36:09;6.23;;;5.00;;
18290;SDS011;9271;48.590;8.866;2023-02-28T08:38:36;5.30;;;4.80;;
18290;SDS011;9271;48.590;8.866;2023-02-28T08:41:04;7.37;;;5.17;;
18290;SDS011;9271;48.590;8.866;2023-02-28T08:43:33;6.87;;;4.53;;
18290;SDS011;9271;48.590;8.866;2023-02-28T08:46:02;5.00;;;4.60;;
18290;SDS011;9271;48.590;8.866;2023-02-28T08:48:30;5.50;;;5.00;;
18290;SDS011;9271;48.590;8.866;2023-02-28T08:50:58;5.50;;;4.93;;
18290;SDS011;9271;48.590;8.866;2023-02-28T08:53:25;5.03;;;4.57;;
18290;SDS011;9271;48.590;8.866;2023-02-28T08:55:56;5.60;;;5.10;;
18290;SDS011;9271;48.590;8.866;2023-02-28T08:58:23;6.03;;;4.70;;
18290;SDS011;9271;48.590;8.866;2023-02-28T09:00:50;5.77;;;4.97;;
18290;SDS011;9271;48.590;8.866;2023-02-28T09:03:18;5.80;;;5.30;;
18290;SDS011;9271;48.590;8.866;2023-02-28T09:05:51;5.70;;;4.90;;
18290;SDS011;9271;48.590;8.866;2023-02-28T09:08:18;5.53;;;5.03;;
18290;SDS011;9271;48.590;8.866;2023-02-28T09:10:45;6.10;;;5.00;;
18290;SDS011;9271;48.590;8.866;2023-02-28T09:13:12;4.83;;;4.37;;
18290;SDS011;9271;48.590;8.866;2023-02-28T09:15:38;5.43;;;4.93;;
18290;SDS011;9271;48.590;8.866;2023-02-28T09:18:05;5.77;;;4.90;;
18290;SDS011;9271;48.590;8.866;2023-02-28T09:20:33;6.10;;;5.03;;
18290;SDS011;9271;48.590;8.866;2023-02-28T09:23:00;5.80;;;4.97;;
18290;SDS011;9271;48.590;8.866;2023-02-28T09:25:26;6.63;;;4.90;;
18290;SDS011;9271;48.590;8.866;2023-02-28T09:27:53;7.63;;;5.67;;
18290;SDS011;9271;48.590;8.866;2023-02-28T09:30:19;4.90;;;4.50;;
18290;SDS011;9271;48.590;8.866;2023-02-28T09:32:46;6.40;;;5.80;;
18290;SDS011;9271;48.590;8.866;2023-02-28T09:35:18;6.10;;;5.50;;
18290;SDS011;9271;48.590;8.866;2023-02-28T09:37:47;6.27;;;5.17;;
18290;SDS011;9271;48.590;8.866;2023-02-28T09:40:14;5.87;;;4.73;;
18290;SDS011;9271;48.590;8.866;2023-02-28T09:42:44;5.90;;;5.30;;
18290;SDS011;9271;48.590;8.866;2023-02-28T09:45:14;4.93;;;4.53;;
18290;SDS011;9271;48.590;8.866;2023-02-28T09:47:48;7.27;;;5.70;;
18290;SDS011;9271;48.590;8.866;2023-02-28T09:50:18;6.57;;;5.50;;
18290;SDS011;9271;48.590;8.866;2023-02-28T09:52:55;7.33;;;6.10;;
18290;SDS011;9271;48.590;8.866;2023-02-28T09:55:25;5.73;;;5.00;;
18290;SDS011;9271;48.590;8.866;2023-02-28T09:57:55;5.70;;;5.20;;
18290;SDS011;9271;48.590;8.866;2023-02-28T10:00:26;6.03;;;5.53;;
18290;SDS011;9271;48.590;8.866;2023-02-28T10:03:04;5.63;;;5.13;;
18290;SDS011;9271;48.590;8.866;2023-02-28T10:05:49;6.50;;;5.83;;
18290;SDS011;9271;48.590;8.866;2023-02-28T10:08:21;5.47;;;4.97;;
18290;SDS011;9271;48.590;8.866;2023-02-28T10:10:54;7.30;;;5.30;;
18290;SDS011;9271;48.590;8.866;2023-02-28T10:13:25;5.60;;;5.10;;
18290;SDS011;9271;48.590;8.866;2023-02-28T10:15:58;6.03;;;5.50;;
18290;SDS011;9271;48.590;8.866;2023-02-28T10:18:29;5.73;;;5.23;;
18290;SDS011;9271;48.590;8.866;2023-02-28T10:21:03;6.00;;;5.43;;
18290;SDS011;9271;48.590;8.866;2023-02-28T10:23:34;5.60;;;5.10;;
18290;SDS011;9271;48.590;8.866;2023-02-28T10:26:05;6.87;;;5.50;;
18290;SDS011;9271;48.590;8.866;2023-02-28T10:28:37;8.17;;;5.17;;
18290;SDS011;9271;48.590;8.866;2023-02-28T10:31:05;5.60;;;5.10;;
18290;SDS011;9271;48.590;8.866;2023-02-28T10:33:37;9.27;;;6.67;;
18290;SDS011;9271;48.590;8.866;2023-02-28T10:36:04;5.67;;;5.13;;
18290;SDS011;9271;48.590;8.866;2023-02-28T10:38:34;7.03;;;5.53;;
18290;SDS011;9271;48.590;8.866;2023-02-28T10:41:03;8.50;;;6.00;;
18290;SDS011;9271;48.590;8.866;2023-02-28T10:43:32;7.60;;;5.70;;
18290;SDS011;9271;48.590;8.866;2023-02-28T10:46:00;8.87;;;7.67;;
18290;SDS011;9271;48.590;8.866;2023-02-28T10:48:31;13.00;;;7.87;;
18290;SDS011;9271;48.590;8.866;2023-02-28T10:51:00;8.20;;;7.37;;
18290;SDS011;9271;48.590;8.866;2023-02-28T10:53:30;6.00;;;5.27;;
18290;SDS011;9271;48.590;8.866;2023-02-28T10:56:02;6.00;;;5.50;;
18290;SDS011;9271;48.590;8.866;2023-02-28T10:58:33;6.57;;;5.60;;
18290;SDS011;9271;48.590;8.866;2023-02-28T11:01:13;5.70;;;5.10;;
18290;SDS011;9271;48.590;8.866;2023-02-28T11:03:41;6.17;;;5.37;;
18290;SDS011;9271;48.590;8.866;2023-02-28T11:06:08;7.40;;;5.77;;
18290;SDS011;9271;48.590;8.866;2023-02-28T11:08:49;6.70;;;5.80;;
18290;SDS011;9271;48.590;8.866;2023-02-28T11:11:18;6.43;;;5.63;;
18290;SDS011;9271;48.590;8.866;2023-02-28T11:13:48;6.07;;;5.30;;
18290;SDS011;9271;48.590;8.866;2023-02-28T11:16:18;6.53;;;5.83;;
18290;SDS011;9271;48.590;8.866;2023-02-28T11:18:47;6.83;;;6.10;;
18290;SDS011;9271;48.590;8.866;2023-02-28T11:21:16;6.23;;;5.40;;
18290;SDS011;9271;48.590;8.866;2023-02-28T11:23:46;7.97;;;5.87;;
18290;SDS011;9271;48.590;8.866;2023-02-28T11:29:08;6.27;;;5.67;;
18290;SDS011;9271;48.590;8.866;2023-02-28T11:31:38;7.87;;;5.50;;
18290;SDS011;9271;48.590;8.866;2023-02-28T11:36:49;6.10;;;5.47;;
18290;SDS011;9271;48.590;8.866;2023-02-28T11:39:18;6.43;;;5.43;;
18290;SDS011;9271;48.590;8.866;2023-02-28T11:41:53;8.43;;;6.10;;
18290;SDS011;9271;48.590;8.866;2023-02-28T11:44:34;7.70;;;5.30;;
18290;SDS011;9271;48.590;8.866;2023-02-28T11:47:17;5.93;;;5.43;;
18290;SDS011;9271;48.590;8.866;2023-02-28T11:49:53;5.90;;;5.30;;
18290;SDS011;9271;48.590;8.866;2023-02-28T11:52:32;6.30;;;5.47;;
18290;SDS011;9271;48.590;8.866;2023-02-28T11:55:13;6.27;;;5.27;;
18290;SDS011;9271;48.590;8.866;2023-02-28T11:57:49;6.40;;;5.30;;
18290;SDS011;9271;48.590;8.866;2023-02-28T12:00:35;6.63;;;5.93;;
18290;SDS011;9271;48.590;8.866;2023-02-28T12:03:15;9.17;;;6.97;;
18290;SDS011;9271;48.590;8.866;2023-02-28T12:05:50;7.17;;;5.73;;
18290;SDS011;9271;48.590;8.866;2023-02-28T12:08:32;9.63;;;6.37;;
18290;SDS011;9271;48.590;8.866;2023-02-28T12:11:16;6.90;;;5.87;;
18290;SDS011;9271;48.590;8.866;2023-02-28T12:26:48;7.33;;;5.93;;
18290;SDS011;9271;48.590;8.866;2023-02-28T12:29:19;9.00;;;6.53;;
18290;SDS011;9271;48.590;8.866;2023-02-28T12:31:49;5.97;;;5.37;;
18290;SDS011;9271;48.590;8.866;2023-02-28T12:34:21;6.23;;;5.73;;
18290;SDS011;9271;48.590;8.866;2023-02-28T12:36:51;9.13;;;6.00;;
18290;SDS011;9271;48.590;8.866;2023-02-28T12:39:23;6.33;;;5.73;;
18290;SDS011;9271;48.590;8.866;2023-02-28T12:41:54;6.47;;;5.87;;
18290;SDS011;9271;48.590;8.866;2023-02-28T12:44:26;6.93;;;6.30;;
18290;SDS011;9271;48.590;8.866;2023-02-28T12:46:58;7.33;;;5.90;;
18290;SDS011;9271;48.590;8.866;2023-02-28T12:49:27;6.73;;;6.03;;
18290;SDS011;9271;48.590;8.866;2023-02-28T12:51:59;6.67;;;6.07;;
18290;SDS011;9271;48.590;8.866;2023-02-28T12:54:28;6.40;;;5.80;;
18290;SDS011;9271;48.590;8.866;2023-02-28T12:57:06;6.50;;;5.90;;
18290;SDS011;9271;48.590;8.866;2023-02-28T12:59:37;7.77;;;5.97;;
18290;SDS011;9271;48.590;8.866;2023-02-28T13:05:34;7.87;;;6.10;;
18290;SDS011;9271;48.590;8.866;2023-02-28T13:08:22;7.00;;;5.97;;
18290;SDS011;9271;48.590;8.866;2023-02-28T13:11:03;7.30;;;5.70;;
18290;SDS011;9271;48.590;8.866;2023-02-28T13:13:31;6.53;;;5.93;;
18290;SDS011;9271;48.590;8.866;2023-02-28T13:15:59;6.70;;;6.03;;
18290;SDS011;9271;48.590;8.866;2023-02-28T13:18:32;13.97;;;6.30;;
18290;SDS011;9271;48.590;8.866;2023-02-28T13:21:02;6.40;;;5.80;;
18290;SDS011;9271;48.590;8.866;2023-02-28T13:29:31;6.83;;;6.23;;
18290;SDS011;9271;48.590;8.866;2023-02-28T13:38:13;9.20;;;7.90;;
18290;SDS011;9271;48.590;8.866;2023-02-28T13:40:49;8.37;;;7.57;;
18290;SDS011;9271;48.590;8.866;2023-02-28T13:43:16;7.37;;;6.50;;
18290;SDS011;9271;48.590;8.866;2023-02-28T13:48:38;11.23;;;8.00;;
18290;SDS011;9271;48.590;8.866;2023-02-28T13:51:27;11.80;;;8.80;;
18290;SDS011;9271;48.590;8.866;2023-02-28T13:54:11;7.40;;;6.67;;
18290;SDS011;9271;48.590;8.866;2023-02-28T13:56:52;8.07;;;6.97;;
18290;SDS011;9271;48.590;8.866;2023-02-28T13:59:30;6.87;;;6.17;;
18290;SDS011;9271;48.590;8.866;2023-02-28T14:02:13;7.57;;;6.70;;
18290;SDS011;9271;48.590;8.866;2023-02-28T14:05:00;7.10;;;6.27;;
18290;SDS011;9271;48.590;8.866;2023-02-28T14:07:32;7.00;;;6.40;;
18290;SDS011;9271;48.590;8.866;2023-02-28T14:10:03;6.77;;;6.17;;
18290;SDS011;9271;48.590;8.866;2023-02-28T14:15:28;6.80;;;6.10;;
18290;SDS011;9271;48.590;8.866;2023-02-28T14:18:22;6.40;;;5.80;;
18290;SDS011;9271;48.590;8.866;2023-02-28T14:20:52;7.03;;;6.33;;
18290;SDS011;9271;48.590;8.866;2023-02-28T14:23:26;7.00;;;6.30;;
18290;SDS011;9271;48.590;8.866;2023-02-28T14:26:06;9.77;;;7.00;;
18290;SDS011;9271;48.590;8.866;2023-02-28T14:28:44;10.67;;;8.20;;
18290;SDS011;9271;48.590;8.866;2023-02-28T14:31:23;8.17;;;7.17;;
18290;SDS011;9271;48.590;8.866;2023-02-28T14:37:09;6.67;;;6.07;;
18290;SDS011;9271;48.590;8.866;2023-02-28T14:39:46;6.93;;;6.23;;
18290;SDS011;9271;48.590;8.866;2023-02-28T14:42:29;7.50;;;6.80;;
18290;SDS011;9271;48.590;8.866;2023-02-28T14:44:58;7.73;;;7.03;;
18290;SDS011;9271;48.590;8.866;2023-02-28T14:47:30;8.93;;;7.13;;
18290;SDS011;9271;48.590;8.866;2023-02-28T14:50:03;6.93;;;6.27;;
18290;SDS011;9271;48.590;8.866;2023-02-28T14:52:31;7.60;;;6.53;;
18290;SDS011;9271;48.590;8.866;2023-02-28T14:54:59;7.37;;;6.67;;
18290;SDS011;9271;48.590;8.866;2023-02-28T14:57:28;6.80;;;6.10;;
18290;SDS011;9271;48.590;8.866;2023-02-28T14:59:59;6.63;;;5.97;;
18290;SDS011;9271;48.590;8.866;2023-02-28T15:02:29;7.27;;;6.60;;
18290;SDS011;9271;48.590;8.866;2023-02-28T15:05:00;9.77;;;6.70;;
18290;SDS011;9271;48.590;8.866;2023-02-28T15:07:37;6.63;;;6.03;;
18290;SDS011;9271;48.590;8.866;2023-02-28T15:10:08;8.30;;;6.83;;
18290;SDS011;9271;48.590;8.866;2023-02-28T15:12:36;7.87;;;6.10;;
18290;SDS011;9271;48.590;8.866;2023-02-28T15:15:05;6.77;;;6.13;;
18290;SDS011;9271;48.590;8.866;2023-02-28T15:17:32;6.63;;;6.00;;
18290;SDS011;9271;48.590;8.866;2023-02-28T15:20:00;7.17;;;6.47;;
18290;SDS011;9271;48.590;8.866;2023-02-28T15:22:28;8.07;;;6.50;;
18290;SDS011;9271;48.590;8.866;2023-02-28T15:25:01;8.17;;;6.80;;
18290;SDS011;9271;48.590;8.866;2023-02-28T15:27:31;7.70;;;6.50;;
18290;SDS011;9271;48.590;8.866;2023-02-28T15:29:59;7.57;;;6.80;;
18290;SDS011;9271;48.590;8.866;2023-02-28T15:32:32;7.07;;;6.40;;
18290;SDS011;9271;48.590;8.866;2023-02-28T15:37:47;8.77;;;6.50;;
18290;SDS011;9271;48.590;8.866;2023-02-28T15:40:22;6.70;;;6.10;;
18290;SDS011;9271;48.590;8.866;2023-02-28T15:42:59;8.33;;;6.40;;
18290;SDS011;9271;48.590;8.866;2023-02-28T15:45:33;7.10;;;6.43;;
18290;SDS011;9271;48.590;8.866;2023-02-28T15:48:03;6.87;;;6.27;;
18290;SDS011;9271;48.590;8.866;2023-02-28T15:50:31;6.93;;;6.23;;
18290;SDS011;9271;48.590;8.866;2023-02-28T15:52:58;6.80;;;6.10;;
18290;SDS011;9271;48.590;8.866;2023-02-28T15:55:29;6.70;;;6.00;;
18290;SDS011;9271;48.590;8.866;2023-02-28T15:57:57;7.00;;;6.30;;
18290;SDS011;9271;48.590;8.866;2023-02-28T16:00:27;6.43;;;5.87;;
18290;SDS011;9271;48.590;8.866;2023-02-28T16:02:57;7.77;;;6.20;;
18290;SDS011;9271;48.590;8.866;2023-02-28T16:05:25;6.63;;;6.03;;
18290;SDS011;9271;48.590;8.866;2023-02-28T16:07:58;7.80;;;5.93;;